createdAt,value
2022-10-19T00:01:31.441Z,18.58
2022-10-19T00:03:59.995Z,18.24
2022-10-19T00:06:36.505Z,18.52
2022-10-19T00:09:15.601Z,18.52
2022-10-19T00:11:46.008Z,18.61
2022-10-19T00:14:16.044Z,18.55
2022-10-19T00:16:47.412Z,18.61
2022-10-19T00:19:18.297Z,18.49
2022-10-19T00:21:45.754Z,18.38
2022-10-19T00:24:12.591Z,18.31
2022-10-19T00:26:39.476Z,18.52
2022-10-19T00:29:06.343Z,18.40
2022-10-19T00:31:33.225Z,18.36
2022-10-19T00:34:02.996Z,18.12
2022-10-19T00:36:32.754Z,18.38
2022-10-19T00:39:00.079Z,18.41
2022-10-19T00:41:30.241Z,18.50
2022-10-19T00:44:06.331Z,18.08
2022-10-19T00:46:38.204Z,18.44
2022-10-19T00:49:24.868Z,18.48
2022-10-19T00:51:55.584Z,18.29
2022-10-19T00:54:23.332Z,18.11
2022-10-19T00:56:56.395Z,18.49
2022-10-19T00:59:25.335Z,18.23
2022-10-19T01:01:52.966Z,18.24
2022-10-19T01:04:24.802Z,18.36
2022-10-19T01:06:54.051Z,17.90
2022-10-19T01:09:29.248Z,18.43
2022-10-19T01:12:14.125Z,18.43
2022-10-19T01:15:09.191Z,17.80
2022-10-19T01:17:54.903Z,17.18
2022-10-19T01:21:03.034Z,18.43
2022-10-19T01:23:54.417Z,18.40
2022-10-19T01:26:29.836Z,18.02
2022-10-19T01:29:15.649Z,18.38
2022-10-19T01:31:48.859Z,18.38
2022-10-19T01:34:24.707Z,18.32
2022-10-19T01:37:02.909Z,18.41
2022-10-19T01:39:49.130Z,18.40
2022-10-19T01:42:29.561Z,18.21
2022-10-19T01:45:18.159Z,18.30
2022-10-19T01:48:09.528Z,18.28
2022-10-19T01:50:38.772Z,18.32
2022-10-19T01:53:08.577Z,18.29
2022-10-19T01:55:42.889Z,18.28
2022-10-19T01:58:13.441Z,18.33
2022-10-19T02:00:43.749Z,17.79
2022-10-19T02:03:22.454Z,18.06
2022-10-19T02:05:51.725Z,18.35
2022-10-19T02:08:31.629Z,18.32
2022-10-19T02:10:59.909Z,18.31
2022-10-19T02:13:28.629Z,18.42
2022-10-19T02:15:59.682Z,17.80
2022-10-19T02:18:36.469Z,18.47
2022-10-19T02:21:05.256Z,18.10
2022-10-19T02:23:32.499Z,18.44
2022-10-19T02:25:59.804Z,18.40
2022-10-19T02:28:31.267Z,18.49
2022-10-19T02:31:02.190Z,18.42
2022-10-19T02:33:30.065Z,18.23
2022-10-19T02:35:57.926Z,18.26
2022-10-19T02:38:25.583Z,18.29
2022-10-19T02:41:02.715Z,18.05
2022-10-19T02:43:37.622Z,18.14
2022-10-19T02:46:13.535Z,17.93
2022-10-19T02:48:45.695Z,18.06
2022-10-19T02:51:33.973Z,17.87
2022-10-19T02:54:04.147Z,17.47
2022-10-19T02:56:33.342Z,17.77
2022-10-19T02:59:00.582Z,17.01
2022-10-19T03:01:30.294Z,17.76
2022-10-19T03:03:57.166Z,17.75
2022-10-19T03:06:23.890Z,17.75
2022-10-19T03:08:53.189Z,17.78
2022-10-19T03:11:20.136Z,17.13
2022-10-19T03:13:49.511Z,17.69
2022-10-19T03:16:16.252Z,17.58
2022-10-19T03:18:42.909Z,17.58
2022-10-19T03:21:12.129Z,17.65
2022-10-19T03:23:40.343Z,17.38
2022-10-19T03:26:11.465Z,16.87
2022-10-19T03:28:39.373Z,17.02
2022-10-19T03:31:06.525Z,17.44
2022-10-19T03:33:33.114Z,17.26
2022-10-19T03:36:27.930Z,17.57
2022-10-19T03:38:57.157Z,17.52
2022-10-19T03:41:27.279Z,17.18
2022-10-19T03:43:54.325Z,17.57
2022-10-19T03:46:22.924Z,17.45
2022-10-19T03:48:50.851Z,17.45
2022-10-19T03:51:24.756Z,17.34
2022-10-19T03:54:03.542Z,17.47
2022-10-19T03:56:32.161Z,16.95
2022-10-19T03:59:04.520Z,17.35
2022-10-19T04:01:40.203Z,17.27
2022-10-19T04:04:14.587Z,17.56
2022-10-19T04:06:44.311Z,17.09
2022-10-19T04:09:17.512Z,17.08
2022-10-19T04:11:47.747Z,17.40
2022-10-19T04:14:22.977Z,17.37
2022-10-19T04:17:03.579Z,17.49
2022-10-19T04:19:30.817Z,17.46
2022-10-19T04:21:58.679Z,17.45
2022-10-19T04:24:28.866Z,17.64
2022-10-19T04:26:56.938Z,17.58
2022-10-19T04:29:29.494Z,17.58
2022-10-19T04:32:00.998Z,17.54
2022-10-19T04:34:30.657Z,17.36
2022-10-19T04:37:01.345Z,17.40
2022-10-19T04:39:28.896Z,17.50
2022-10-19T04:41:55.950Z,17.62
2022-10-19T04:44:25.436Z,17.48
2022-10-19T04:46:52.598Z,17.18
2022-10-19T04:49:20.338Z,17.29
2022-10-19T04:51:47.082Z,17.33
2022-10-19T04:54:13.763Z,17.28
2022-10-19T04:56:40.480Z,17.27
2022-10-19T04:59:07.423Z,17.26
2022-10-19T05:01:34.109Z,17.11
2022-10-19T05:04:03.008Z,17.03
2022-10-19T05:06:31.216Z,16.88
2022-10-19T05:08:58.585Z,17.21
2022-10-19T05:11:25.717Z,17.18
2022-10-19T05:13:52.686Z,17.21
2022-10-19T05:16:22.201Z,17.38
2022-10-19T05:18:53.567Z,17.21
2022-10-19T05:21:21.977Z,16.80
2022-10-19T05:23:53.207Z,17.00
2022-10-19T05:26:22.395Z,17.01
2022-10-19T06:14:53.618Z,17.09
2022-10-19T06:17:20.405Z,17.08
2022-10-19T06:19:47.191Z,17.07
2022-10-19T06:22:13.902Z,16.91
2022-10-19T06:24:41.045Z,17.29
2022-10-19T06:27:09.723Z,17.35
2022-10-19T06:29:36.508Z,17.15
2022-10-19T06:32:03.298Z,17.44
2022-10-19T06:34:30.148Z,17.43
2022-10-19T06:36:57.087Z,17.43
2022-10-19T06:39:23.828Z,17.52
2022-10-19T06:41:53.112Z,16.93
2022-10-19T06:44:21.001Z,17.28
2022-10-19T06:46:47.754Z,17.73
2022-10-19T06:49:14.986Z,17.58
2022-10-19T06:51:41.919Z,17.69
2022-10-19T06:54:08.679Z,17.70
2022-10-19T06:56:35.386Z,17.78
2022-10-19T06:59:02.127Z,18.02
2022-10-19T07:01:29.108Z,18.07
2022-10-19T07:03:56.415Z,18.01
2022-10-19T07:06:23.712Z,18.23
2022-10-19T07:08:50.699Z,18.25
2022-10-19T07:11:22.837Z,17.87
2022-10-19T07:13:49.949Z,18.35
2022-10-19T07:16:21.220Z,18.42
2022-10-19T07:18:52.973Z,18.41
2022-10-19T07:21:21.665Z,17.98
2022-10-19T07:23:49.963Z,18.56
2022-10-19T07:26:23.962Z,18.50
2022-10-19T07:28:51.307Z,18.24
2022-10-19T07:31:20.944Z,18.35
2022-10-19T07:33:53.077Z,18.35
2022-10-19T07:36:19.878Z,18.96
2022-10-19T07:38:46.613Z,18.97
2022-10-19T07:41:17.746Z,18.85
2022-10-19T07:43:46.087Z,17.91
2022-10-19T07:46:18.823Z,19.11
2022-10-19T07:48:45.860Z,19.28
2022-10-19T07:51:15.252Z,19.31
2022-10-19T07:53:44.558Z,19.00
2022-10-19T07:56:14.193Z,19.47
2022-10-19T07:58:41.935Z,19.04
2022-10-19T08:01:12.134Z,19.35
2022-10-19T08:06:28.740Z,19.58
2022-10-19T08:08:56.079Z,19.35
2022-10-19T08:11:30.024Z,19.07
2022-10-19T08:14:00.022Z,18.73
2022-10-19T08:16:40.636Z,19.75
2022-10-19T08:19:09.806Z,19.16
2022-10-19T08:21:40.401Z,19.76
2022-10-19T08:24:08.512Z,19.63
2022-10-19T08:26:38.414Z,19.61
2022-10-19T08:29:12.364Z,19.94
2022-10-19T08:31:40.202Z,19.62
2022-10-19T08:34:07.599Z,20.07
2022-10-19T08:36:35.800Z,20.03
2022-10-19T08:39:08.582Z,19.23
2022-10-19T08:41:38.243Z,20.33
2022-10-19T08:44:36.203Z,20.06
2022-10-19T08:47:10.057Z,20.09
2022-10-19T08:49:39.775Z,20.37
2022-10-19T08:52:29.571Z,20.76
2022-10-19T08:55:18.141Z,20.85
2022-10-19T08:58:08.642Z,20.99
2022-10-19T09:00:54.479Z,20.84
2022-10-19T09:03:37.640Z,20.87
2022-10-19T09:06:32.143Z,21.22
2022-10-19T09:08:59.745Z,21.32
2022-10-19T09:11:34.413Z,21.35
2022-10-19T09:14:12.103Z,21.65
2022-10-19T09:16:38.901Z,21.63
2022-10-19T09:19:15.629Z,21.89
2022-10-19T09:22:18.341Z,21.64
2022-10-19T09:24:55.640Z,22.09
2022-10-19T09:27:29.871Z,22.23
2022-10-19T09:30:04.471Z,22.44
2022-10-19T09:32:38.175Z,22.16
2022-10-19T09:35:28.114Z,22.52
2022-10-19T09:37:58.514Z,22.45
2022-10-19T09:40:31.030Z,22.70
2022-10-19T09:43:08.838Z,22.85
2022-10-19T09:46:00.433Z,22.96
2022-10-19T09:48:35.434Z,23.05
2022-10-19T09:51:10.631Z,23.21
2022-10-19T09:53:38.949Z,23.16
2022-10-19T09:56:08.434Z,23.44
2022-10-19T09:58:53.789Z,23.51
2022-10-19T10:01:41.770Z,23.39
2022-10-19T10:04:18.990Z,23.54
2022-10-19T10:06:50.227Z,23.89
2022-10-19T10:09:29.425Z,23.81
2022-10-19T10:12:00.515Z,23.57
2022-10-19T10:14:32.085Z,23.96
2022-10-19T10:17:19.591Z,24.24
2022-10-19T10:19:58.858Z,23.46
2022-10-19T10:22:34.318Z,23.29
2022-10-19T10:25:01.908Z,24.65
2022-10-19T10:27:32.096Z,23.96
2022-10-19T10:30:00.486Z,24.87
2022-10-19T10:32:28.925Z,24.27
2022-10-19T10:35:46.855Z,23.63
2022-10-19T10:38:29.685Z,24.98
2022-10-19T10:41:12.884Z,25.10
2022-10-19T10:44:07.499Z,24.88
2022-10-19T10:46:37.319Z,24.63
2022-10-19T10:49:18.698Z,25.41
2022-10-19T10:51:53.436Z,25.58
2022-10-19T10:54:32.038Z,25.11
2022-10-19T11:00:08.325Z,25.29
2022-10-19T11:02:48.092Z,24.48
2022-10-19T11:05:47.553Z,25.00
2022-10-19T11:08:51.575Z,25.00
2022-10-19T11:11:28.185Z,24.97
2022-10-19T11:14:08.654Z,24.88
2022-10-19T11:16:41.851Z,24.03
2022-10-19T11:19:20.364Z,24.14
2022-10-19T11:22:15.490Z,23.27
2022-10-19T11:24:55.418Z,24.34
2022-10-19T11:27:43.597Z,24.47
2022-10-19T11:30:24.670Z,24.45
2022-10-19T11:33:35.364Z,24.22
2022-10-19T11:36:31.814Z,24.26
2022-10-19T11:39:22.641Z,24.20
2022-10-19T11:42:06.948Z,23.82
2022-10-19T11:44:36.516Z,23.93
2022-10-19T11:47:24.471Z,24.22
2022-10-19T11:50:02.486Z,23.83
2022-10-19T11:53:00.899Z,23.94
2022-10-19T11:55:52.433Z,24.23
2022-10-19T11:58:49.886Z,24.20
2022-10-19T12:01:45.667Z,24.09
2022-10-19T12:04:38.758Z,23.93
2022-10-19T12:07:43.896Z,24.21
2022-10-19T12:10:29.545Z,24.17
2022-10-19T12:13:03.673Z,23.39
2022-10-19T12:15:39.752Z,24.13
2022-10-19T12:18:32.366Z,23.77
2022-10-19T12:21:04.795Z,24.04
2022-10-19T12:23:35.549Z,24.05
2022-10-19T12:26:05.953Z,23.79
2022-10-19T12:28:35.953Z,23.77
2022-10-19T12:31:04.884Z,23.99
2022-10-19T12:33:37.103Z,23.90
2022-10-19T12:36:03.803Z,23.90
2022-10-19T12:38:45.988Z,23.95
2022-10-19T12:41:20.318Z,23.60
2022-10-19T12:43:56.381Z,24.00
2022-10-19T12:46:42.950Z,23.99
2022-10-19T12:49:31.620Z,24.07
2022-10-19T12:52:53.188Z,24.07
2022-10-19T12:55:35.100Z,24.12
2022-10-19T12:58:17.075Z,23.80
2022-10-19T13:01:07.791Z,24.04
2022-10-19T13:03:41.321Z,24.00
2022-10-19T13:06:29.423Z,24.08
2022-10-19T13:09:04.948Z,23.97
2022-10-19T13:14:26.466Z,23.94
2022-10-19T13:16:59.601Z,23.84
2022-10-19T13:19:26.792Z,23.56
2022-10-19T13:22:20.477Z,24.03
2022-10-19T13:25:21.669Z,24.12
2022-10-19T13:27:52.230Z,24.12
2022-10-19T13:30:37.157Z,24.08
2022-10-19T13:33:25.715Z,24.08
2022-10-19T13:35:58.669Z,24.04
2022-10-19T13:38:59.604Z,24.01
2022-10-19T13:41:37.252Z,23.82
2022-10-19T13:44:20.974Z,24.14
2022-10-19T13:46:52.180Z,23.92
2022-10-19T13:49:32.611Z,24.24
2022-10-19T13:52:02.585Z,23.80
2022-10-19T13:54:51.350Z,24.04
2022-10-19T13:57:44.128Z,24.06
2022-10-19T14:00:21.249Z,24.22
2022-10-19T14:02:54.533Z,24.05
2022-10-19T14:06:02.252Z,23.90
2022-10-19T14:08:40.575Z,24.01
2022-10-19T14:11:35.138Z,23.21
2022-10-19T14:14:13.421Z,24.08
2022-10-19T14:16:56.082Z,24.03
2022-10-19T14:19:43.644Z,24.04
2022-10-19T14:22:38.817Z,24.03
2022-10-19T14:25:18.294Z,24.02
2022-10-19T14:27:54.320Z,23.86
2022-10-19T14:30:31.774Z,23.91
2022-10-19T14:33:02.843Z,23.51
2022-10-19T14:35:36.243Z,23.94
2022-10-19T14:38:08.733Z,23.91
2022-10-19T14:40:41.465Z,23.51
2022-10-19T14:43:32.540Z,23.80
2022-10-19T14:46:08.562Z,23.86
2022-10-19T14:48:36.944Z,23.98
2022-10-19T14:51:10.171Z,23.67
2022-10-19T14:53:54.549Z,23.89
2022-10-19T14:56:33.318Z,23.95
2022-10-19T14:59:04.980Z,23.93
2022-10-19T15:01:32.124Z,23.79
2022-10-19T15:04:00.107Z,23.87
2022-10-19T15:06:32.037Z,23.31
2022-10-19T15:09:09.400Z,23.80
2022-10-19T15:11:47.441Z,23.71
2022-10-19T15:14:19.447Z,23.73
2022-10-19T15:16:50.691Z,23.25
2022-10-19T15:19:29.398Z,23.82
2022-10-19T15:22:14.690Z,23.79
2022-10-19T15:25:06.380Z,23.80
2022-10-19T15:27:40.216Z,23.84
2022-10-19T15:30:31.168Z,23.87
2022-10-19T15:33:21.014Z,23.81
2022-10-19T15:35:49.620Z,23.81
2022-10-19T15:38:25.391Z,23.71
2022-10-19T15:41:02.410Z,23.73
2022-10-19T15:43:34.975Z,23.04
2022-10-19T15:46:21.831Z,23.74
2022-10-19T15:49:01.782Z,23.67
2022-10-19T15:51:30.614Z,23.28
2022-10-19T15:54:02.019Z,23.50
2022-10-19T15:56:30.911Z,22.86
2022-10-19T15:59:00.673Z,23.30
2022-10-19T16:01:30.186Z,22.92
2022-10-19T16:03:57.261Z,23.07
2022-10-19T16:06:27.282Z,22.84
2022-10-19T16:08:54.328Z,23.45
2022-10-19T16:11:23.303Z,23.47
2022-10-19T16:13:51.913Z,23.27
2022-10-19T16:16:28.560Z,23.34
2022-10-19T16:18:56.224Z,23.16
2022-10-19T16:21:26.483Z,23.21
2022-10-19T16:23:56.827Z,22.78
2022-10-19T16:26:25.385Z,23.06
2022-10-19T16:28:55.511Z,22.94
2022-10-19T16:31:23.223Z,22.94
2022-10-19T16:33:50.249Z,22.85
2022-10-19T16:36:20.250Z,23.00
2022-10-19T16:38:48.769Z,22.86
2022-10-19T16:41:17.910Z,22.17
2022-10-19T16:43:47.489Z,22.55
2022-10-19T16:46:16.208Z,22.58
2022-10-19T16:48:43.449Z,22.61
2022-10-19T16:51:27.572Z,22.64
2022-10-19T16:54:00.404Z,22.31
2022-10-19T16:56:29.503Z,22.54
2022-10-19T16:59:01.272Z,22.49
2022-10-19T17:01:29.077Z,21.02
2022-10-19T17:03:56.761Z,21.64
2022-10-19T17:06:27.704Z,21.39
2022-10-19T17:09:30.202Z,21.11
2022-10-19T17:11:47.231Z,22.18
2022-10-19T17:14:14.234Z,22.15
2022-10-19T17:16:41.381Z,21.77
2022-10-19T17:19:09.238Z,21.62
2022-10-19T17:21:38.632Z,21.31
2022-10-19T17:24:08.622Z,20.52
2022-10-19T17:26:39.090Z,21.87
2022-10-19T17:29:08.903Z,21.89
2022-10-19T17:31:40.249Z,21.85
2022-10-19T17:34:08.624Z,21.69
2022-10-19T17:39:11.076Z,20.69
2022-10-19T17:41:38.171Z,21.30
2022-10-19T17:44:05.437Z,21.46
2022-10-19T17:46:35.891Z,21.18
2022-10-19T17:49:03.649Z,21.29
2022-10-19T17:51:35.007Z,21.69
2022-10-19T17:54:04.817Z,21.50
2022-10-19T17:56:31.917Z,21.68
2022-10-19T17:59:05.118Z,20.35
2022-10-19T18:01:31.800Z,21.13
2022-10-19T18:04:07.947Z,20.10
2022-10-19T18:06:39.958Z,21.29
2022-10-19T18:09:08.891Z,21.04
2022-10-19T18:11:41.858Z,21.54
2022-10-19T18:14:12.064Z,21.19
2022-10-19T18:16:45.402Z,21.44
2022-10-19T18:19:14.159Z,21.30
2022-10-19T18:21:43.530Z,21.19
2022-10-19T18:24:21.385Z,20.18
2022-10-19T18:26:51.627Z,20.49
2022-10-19T18:29:24.188Z,21.38
2022-10-19T18:31:52.462Z,21.34
2022-10-19T18:34:26.537Z,21.25
2022-10-19T18:36:57.621Z,21.24
2022-10-19T18:39:24.344Z,21.18
2022-10-19T18:41:54.703Z,21.07
2022-10-19T18:44:26.596Z,20.70
2022-10-19T18:46:57.183Z,20.83
2022-10-19T18:49:24.503Z,21.07
2022-10-19T18:51:55.088Z,20.99
2022-10-19T18:54:22.713Z,20.98
2022-10-19T18:56:49.450Z,20.98
2022-10-19T18:59:16.194Z,20.92
2022-10-19T19:01:42.954Z,20.95
2022-10-19T19:04:10.373Z,20.98
2022-10-19T19:06:40.573Z,20.99
2022-10-19T19:09:19.815Z,20.73
2022-10-19T19:11:48.707Z,20.88
2022-10-19T19:14:18.640Z,20.89
2022-10-19T19:16:48.750Z,20.77
2022-10-19T19:19:21.180Z,20.57
2022-10-19T19:21:51.756Z,20.96
2022-10-19T19:24:22.536Z,20.78
2022-10-19T19:26:54.665Z,20.47
2022-10-19T19:29:22.429Z,20.21
2022-10-19T19:31:49.206Z,20.80
2022-10-19T19:34:17.105Z,20.62
2022-10-19T19:36:49.696Z,20.26
2022-10-19T19:39:20.174Z,20.48
2022-10-19T19:41:48.761Z,20.26
2022-10-19T19:44:16.655Z,20.35
2022-10-19T19:46:44.528Z,19.31
2022-10-19T19:49:11.994Z,20.25
2022-10-19T19:51:39.505Z,19.98
2022-10-19T19:54:06.516Z,20.08
2022-10-19T19:56:34.811Z,19.51
2022-10-19T19:59:03.854Z,19.93
2022-10-19T20:01:31.287Z,19.96
2022-10-19T20:06:31.077Z,19.87
2022-10-19T20:08:58.545Z,19.79
2022-10-19T20:11:27.518Z,19.58
2022-10-19T20:13:54.528Z,19.68
2022-10-19T20:16:32.147Z,19.67
2022-10-19T20:19:11.482Z,19.52
2022-10-19T20:21:39.247Z,19.63
2022-10-19T20:24:07.943Z,19.57
2022-10-19T20:26:35.612Z,19.53
2022-10-19T20:29:03.975Z,19.40
2022-10-19T20:31:32.674Z,19.35
2022-10-19T20:33:59.940Z,19.41
2022-10-19T20:36:27.239Z,19.47
2022-10-19T20:39:00.549Z,19.52
2022-10-19T20:41:29.029Z,19.44
2022-10-19T20:43:56.031Z,19.50
2022-10-19T20:46:25.584Z,19.27
2022-10-19T20:48:52.344Z,19.50
2022-10-19T20:51:40.872Z,19.37
2022-10-19T20:54:12.118Z,19.48
2022-10-19T20:56:44.506Z,19.38
2022-10-19T20:59:22.793Z,19.52
2022-10-19T21:01:51.508Z,19.54
2022-10-19T21:04:25.884Z,19.64
2022-10-19T21:06:52.870Z,19.54
2022-10-19T21:09:23.976Z,19.69
2022-10-19T21:11:51.834Z,19.68
2022-10-19T21:14:27.196Z,19.47
2022-10-19T21:16:58.806Z,19.56
2022-10-19T21:19:29.754Z,19.55
2022-10-19T21:22:02.296Z,19.53
2022-10-19T21:24:36.940Z,19.10
2022-10-19T21:27:07.572Z,19.45
2022-10-19T21:29:34.556Z,19.17
2022-10-19T21:32:02.552Z,19.23
2022-10-19T21:34:31.695Z,19.09
2022-10-19T21:37:01.695Z,19.12
2022-10-19T21:39:28.684Z,19.29
2022-10-19T21:41:55.758Z,19.24
2022-10-19T21:44:23.285Z,19.19
2022-10-19T21:46:50.473Z,18.50
2022-10-19T21:49:17.867Z,19.11
2022-10-19T21:51:47.917Z,19.09
2022-10-19T21:54:19.576Z,18.70
2022-10-19T21:56:48.780Z,18.73
2022-10-19T21:59:16.139Z,18.93
2022-10-19T22:01:43.111Z,18.73
2022-10-19T22:04:13.924Z,18.82
2022-10-19T22:06:41.372Z,19.00
2022-10-19T22:09:09.986Z,18.92
2022-10-19T22:11:36.701Z,18.60
2022-10-19T22:14:05.377Z,18.91
2022-10-19T22:16:33.653Z,18.74
2022-10-19T22:19:00.517Z,19.07
2022-10-19T22:21:30.318Z,18.88
2022-10-19T22:24:00.600Z,18.93
2022-10-19T22:26:33.473Z,19.04
2022-10-19T22:29:01.610Z,19.00
2022-10-19T22:31:31.047Z,18.95
2022-10-19T22:33:59.983Z,18.93
2022-10-19T22:36:29.117Z,18.12
2022-10-19T22:38:55.983Z,18.84
2022-10-19T22:41:22.935Z,18.86
2022-10-19T22:43:51.046Z,18.84
2022-10-19T22:46:17.847Z,18.65
2022-10-19T22:48:44.754Z,18.52
2022-10-19T22:51:12.913Z,18.48
2022-10-19T22:53:39.705Z,18.51
2022-10-19T22:56:06.965Z,18.68
2022-10-19T22:58:33.823Z,18.65
2022-10-19T23:01:05.207Z,18.63
2022-10-19T23:03:32.152Z,18.57
2022-10-19T23:05:59.348Z,18.44
2022-10-19T23:08:31.800Z,18.58
2022-10-19T23:10:58.722Z,18.56
2022-10-19T23:13:25.872Z,18.31
2022-10-19T23:15:52.772Z,18.40
2022-10-19T23:18:19.866Z,18.29
2022-10-19T23:21:13.670Z,18.51
2022-10-19T23:23:43.674Z,18.52
2022-10-19T23:26:13.450Z,18.46
2022-10-19T23:28:42.205Z,18.19
2022-10-19T23:31:10.222Z,18.49
2022-10-19T23:33:37.136Z,18.39
2022-10-19T23:36:09.094Z,18.42
2022-10-19T23:38:36.295Z,18.23
2022-10-19T23:41:07.604Z,18.48
2022-10-19T23:46:03.952Z,18.31
2022-10-19T23:48:30.860Z,18.30
2022-10-19T23:51:06.504Z,18.30
2022-10-19T23:53:40.021Z,18.09
2022-10-19T23:56:23.207Z,18.15
2022-10-19T23:58:51.488Z,18.31
